createdAt,value
2022-09-01T00:00:16.315Z,25.50
2022-09-01T00:02:46.033Z,25.60
2022-09-01T00:05:15.279Z,25.60
2022-09-01T00:07:44.499Z,25.70
2022-09-01T00:10:13.723Z,25.70
2022-09-01T00:12:43.154Z,25.70
2022-09-01T00:15:13.898Z,25.80
2022-09-01T00:17:43.088Z,25.70
2022-09-01T00:20:15.869Z,25.80
2022-09-01T00:22:47.572Z,25.70
2022-09-01T00:25:16.773Z,25.70
2022-09-01T00:27:46.029Z,25.70
2022-09-01T00:30:15.668Z,25.70
2022-09-01T00:32:48.246Z,25.80
2022-09-01T00:35:21.022Z,25.70
2022-09-01T00:37:50.722Z,25.70
2022-09-01T00:40:20.986Z,25.70
2022-09-01T00:42:50.720Z,25.70
2022-09-01T00:45:21.729Z,25.70
2022-09-01T00:47:52.416Z,25.70
2022-09-01T00:50:23.117Z,25.80
2022-09-01T00:52:56.502Z,25.80
2022-09-01T00:55:30.790Z,25.80
2022-09-01T00:58:04.800Z,25.80
2022-09-01T01:00:42.272Z,25.80
2022-09-01T01:03:14.234Z,25.80
2022-09-01T01:05:55.313Z,25.90
2022-09-01T01:08:35.292Z,25.90
2022-09-01T01:11:20.176Z,25.90
2022-09-01T01:13:57.290Z,25.90
2022-09-01T01:16:29.237Z,26.00
2022-09-01T01:18:58.610Z,26.10
2022-09-01T01:21:55.622Z,26.20
2022-09-01T01:24:36.057Z,26.20
2022-09-01T01:27:06.617Z,26.30
2022-09-01T01:29:43.323Z,26.40
2022-09-01T01:32:14.569Z,26.50
2022-09-01T01:34:45.432Z,26.50
2022-09-01T01:37:15.830Z,26.60
2022-09-01T01:39:46.243Z,26.60
2022-09-01T01:42:15.745Z,26.60
2022-09-01T01:44:45.385Z,26.70
2022-09-01T01:47:19.230Z,26.70
2022-09-01T01:49:48.593Z,26.80
2022-09-01T01:52:19.162Z,26.80
2022-09-01T01:54:48.983Z,26.80
2022-09-01T01:57:19.306Z,26.90
2022-09-01T01:59:48.992Z,27.00
2022-09-01T02:02:25.783Z,27.10
2022-09-01T02:04:56.505Z,27.30
2022-09-01T02:07:25.788Z,27.30
2022-09-01T02:09:59.485Z,27.40
2022-09-01T02:12:29.078Z,27.50
2022-09-01T02:15:01.930Z,27.60
2022-09-01T02:17:31.175Z,27.60
2022-09-01T02:20:00.788Z,27.70
2022-09-01T02:22:30.068Z,27.80
2022-09-01T02:25:02.839Z,27.80
2022-09-01T02:27:32.915Z,27.90
2022-09-01T02:30:03.454Z,27.90
2022-09-01T02:32:33.500Z,27.90
2022-09-01T02:35:02.870Z,28.10
2022-09-01T02:37:32.226Z,28.20
2022-09-01T02:40:01.552Z,28.20
2022-09-01T02:42:31.131Z,28.30
2022-09-01T02:45:02.602Z,28.30
2022-09-01T02:47:31.975Z,28.30
2022-09-01T02:50:05.338Z,28.40
2022-09-01T02:52:37.531Z,28.40
2022-09-01T02:55:07.648Z,28.50
2022-09-01T02:57:37.306Z,28.50
2022-09-01T03:00:22.085Z,28.60
2022-09-01T03:02:54.215Z,28.60
2022-09-01T03:05:28.532Z,28.70
2022-09-01T03:08:05.876Z,28.70
2022-09-01T03:10:37.646Z,28.80
2022-09-01T03:13:11.502Z,28.90
2022-09-01T03:15:44.119Z,28.90
2022-09-01T03:18:20.067Z,29.00
2022-09-01T03:20:55.041Z,29.10
2022-09-01T03:23:26.632Z,29.20
2022-09-01T03:25:57.732Z,29.20
2022-09-01T03:28:39.289Z,29.20
2022-09-01T03:31:10.824Z,29.30
2022-09-01T03:33:40.203Z,29.30
2022-09-01T03:36:15.190Z,29.40
2022-09-01T03:38:45.226Z,29.50
2022-09-01T03:41:14.872Z,29.50
2022-09-01T03:43:47.020Z,29.60
2022-09-01T03:46:45.008Z,29.70
2022-09-01T03:49:17.067Z,29.70
2022-09-01T03:51:47.572Z,29.80
2022-09-01T03:54:17.258Z,29.80
2022-09-01T03:56:46.663Z,29.80
2022-09-01T03:59:18.256Z,29.70
2022-09-01T04:01:48.221Z,29.80
2022-09-01T04:04:18.046Z,29.80
2022-09-01T04:06:48.501Z,29.90
2022-09-01T04:09:17.918Z,30.00
2022-09-01T04:11:48.354Z,30.00
2022-09-01T04:14:18.516Z,30.10
2022-09-01T04:17:08.244Z,30.20
2022-09-01T04:19:40.795Z,30.20
2022-09-01T04:22:14.821Z,30.20
2022-09-01T04:24:47.208Z,30.30
2022-09-01T04:27:19.570Z,30.30
2022-09-01T04:29:49.891Z,30.30
2022-09-01T04:32:23.565Z,30.40
2022-09-01T04:34:56.825Z,30.40
2022-09-01T04:37:26.299Z,30.40
2022-09-01T04:39:57.541Z,30.40
2022-09-01T04:42:30.579Z,30.40
2022-09-01T04:45:09.877Z,30.40
2022-09-01T04:47:45.863Z,30.40
2022-09-01T04:50:15.626Z,30.50
2022-09-01T04:52:46.255Z,30.50
2022-09-01T04:55:19.956Z,30.60
2022-09-01T04:57:50.812Z,30.70
2022-09-01T05:00:24.333Z,30.90
2022-09-01T05:03:05.481Z,30.90
2022-09-01T05:05:45.931Z,30.80
2022-09-01T05:08:23.318Z,30.70
2022-09-01T05:10:57.103Z,30.70
2022-09-01T05:13:30.944Z,30.70
2022-09-01T05:19:27.196Z,30.70
2022-09-01T05:21:59.726Z,30.70
2022-09-01T05:24:31.952Z,30.80
2022-09-01T05:27:01.927Z,30.80
2022-09-01T05:29:31.157Z,30.80
2022-09-01T05:32:00.784Z,30.80
2022-09-01T05:34:31.575Z,30.80
2022-09-01T05:37:02.102Z,30.90
2022-09-01T05:39:31.814Z,30.90
2022-09-01T05:42:03.044Z,30.90
2022-09-01T05:44:32.369Z,30.90
2022-09-01T05:47:01.976Z,30.80
2022-09-01T05:49:35.542Z,30.80
2022-09-01T05:52:04.938Z,30.80
2022-09-01T05:54:34.163Z,30.90
2022-09-01T05:57:30.251Z,31.00
2022-09-01T05:59:55.126Z,30.90
2022-09-01T06:02:25.430Z,31.00
2022-09-01T06:04:58.675Z,31.00
2022-09-01T06:07:29.874Z,31.00
2022-09-01T06:10:01.191Z,31.10
2022-09-01T06:12:30.376Z,31.20
2022-09-01T06:15:00.381Z,31.40
2022-09-01T06:17:34.684Z,31.50
2022-09-01T06:20:12.831Z,31.60
2022-09-01T06:22:42.501Z,31.70
2022-09-01T06:25:12.290Z,31.90
2022-09-01T06:27:44.219Z,31.90
2022-09-01T06:30:23.506Z,32.00
2022-09-01T06:32:55.032Z,32.00
2022-09-01T06:35:30.919Z,32.00
2022-09-01T06:38:04.734Z,32.00
2022-09-01T06:40:37.406Z,31.90
2022-09-01T06:43:14.165Z,31.90
2022-09-01T06:45:55.709Z,31.90
2022-09-01T06:48:25.299Z,31.80
2022-09-01T06:53:47.068Z,31.80
2022-09-01T06:56:18.078Z,31.70
2022-09-01T06:58:49.667Z,31.70
2022-09-01T07:01:23.043Z,31.60
2022-09-01T07:03:53.645Z,31.50
2022-09-01T07:12:24.324Z,31.60
2022-09-01T07:17:58.489Z,31.70
2022-09-01T07:20:30.792Z,31.70
2022-09-01T07:23:04.265Z,31.60
2022-09-01T07:26:00.471Z,31.50
2022-09-01T07:28:26.418Z,31.60
2022-09-01T07:39:50.319Z,31.80
2022-09-01T07:42:30.044Z,31.60
2022-09-01T07:45:29.324Z,32.00
2022-09-01T07:48:04.547Z,32.00
2022-09-01T07:50:40.907Z,32.00
2022-09-01T07:53:28.810Z,32.00
2022-09-01T07:55:58.948Z,32.00
2022-09-01T07:58:31.577Z,32.00
2022-09-01T08:01:01.554Z,32.10
2022-09-01T08:03:32.954Z,32.10
2022-09-01T08:06:10.061Z,32.20
2022-09-01T08:08:41.414Z,32.20
2022-09-01T08:11:10.964Z,32.20
2022-09-01T08:13:41.874Z,32.20
2022-09-01T08:16:19.780Z,32.30
2022-09-01T08:18:50.083Z,32.30
2022-09-01T08:21:23.414Z,32.30
2022-09-01T08:23:55.072Z,32.30
2022-09-01T08:26:27.176Z,32.40
2022-09-01T08:28:57.623Z,32.30
2022-09-01T08:31:30.760Z,32.30
2022-09-01T08:34:01.365Z,32.30
2022-09-01T08:36:30.618Z,32.30
2022-09-01T08:38:59.901Z,32.30
2022-09-01T08:41:55.111Z,32.30
2022-09-01T08:44:54.221Z,32.30
2022-09-01T08:47:43.756Z,32.30
2022-09-01T08:50:13.675Z,32.40
2022-09-01T08:53:09.037Z,32.50
2022-09-01T08:55:43.568Z,32.40
2022-09-01T08:58:18.542Z,32.40
2022-09-01T09:00:57.784Z,32.30
2022-09-01T09:04:00.636Z,32.20
2022-09-01T09:06:39.073Z,32.10
2022-09-01T09:09:11.262Z,32.00
2022-09-01T09:12:08.669Z,32.00
2022-09-01T09:14:54.844Z,31.90
2022-09-01T09:17:33.403Z,31.60
2022-09-01T09:20:03.992Z,31.30
2022-09-01T09:22:34.683Z,31.00
2022-09-01T09:25:09.462Z,30.80
2022-09-01T09:27:42.348Z,30.60
2022-09-01T09:30:16.908Z,30.40
2022-09-01T09:33:24.932Z,30.30
2022-09-01T09:35:46.674Z,30.20
2022-09-01T09:38:24.561Z,30.10
2022-09-01T09:41:26.870Z,30.10
2022-09-01T09:44:11.313Z,30.00
2022-09-01T09:46:44.498Z,30.00
2022-09-01T09:49:14.790Z,29.80
2022-09-01T09:51:46.857Z,29.80
2022-09-01T09:54:26.343Z,29.80
2022-09-01T09:57:13.512Z,29.70
2022-09-01T09:59:58.702Z,29.60
2022-09-01T10:02:32.697Z,29.60
2022-09-01T10:05:23.741Z,29.50
2022-09-01T10:07:56.850Z,29.50
2022-09-01T10:10:41.857Z,29.50
2022-09-01T10:13:15.095Z,29.50
2022-09-01T10:15:51.578Z,29.40
2022-09-01T10:18:29.515Z,29.40
2022-09-01T10:21:05.848Z,29.30
2022-09-01T10:23:38.735Z,29.30
2022-09-01T10:26:16.528Z,29.20
2022-09-01T10:28:59.051Z,29.10
2022-09-01T10:31:32.545Z,29.00
2022-09-01T10:34:06.181Z,29.00
2022-09-01T10:36:38.268Z,28.90
2022-09-01T10:39:11.971Z,28.80
2022-09-01T10:42:00.029Z,28.80
2022-09-01T10:44:36.561Z,28.70
2022-09-01T10:47:14.786Z,28.60
2022-09-01T10:49:50.098Z,28.60
2022-09-01T10:52:58.558Z,28.50
2022-09-01T10:55:32.743Z,28.50
2022-09-01T10:59:30.868Z,28.50
2022-09-01T11:01:34.949Z,28.50
2022-09-01T11:03:56.904Z,28.40
2022-09-01T11:09:49.849Z,28.50
2022-09-01T11:12:29.921Z,28.50
2022-09-01T11:15:01.514Z,28.50
2022-09-01T11:17:51.745Z,28.40
2022-09-01T11:20:41.687Z,28.40
2022-09-01T11:23:32.775Z,28.40
2022-09-01T11:26:23.975Z,28.40
2022-09-01T11:28:53.233Z,28.40
2022-09-01T11:31:30.887Z,28.30
2022-09-01T11:34:21.527Z,28.30
2022-09-01T11:36:58.104Z,28.30
2022-09-01T11:39:36.589Z,28.20
2022-09-01T11:42:15.921Z,28.20
2022-09-01T11:44:54.624Z,28.10
2022-09-01T11:47:33.376Z,28.20
2022-09-01T11:50:07.497Z,28.20
2022-09-01T11:52:39.626Z,28.20
2022-09-01T11:55:10.104Z,28.20
2022-09-01T11:57:42.050Z,28.20
2022-09-01T12:00:15.498Z,28.20
2022-09-01T12:02:49.385Z,28.10
2022-09-01T12:05:40.297Z,28.10
2022-09-01T12:08:22.950Z,28.10
2022-09-01T12:11:07.949Z,28.10
2022-09-01T12:13:38.286Z,28.10
2022-09-01T12:16:20.185Z,28.10
2022-09-01T12:18:52.867Z,28.10
2022-09-01T12:21:26.813Z,28.10
2022-09-01T12:24:11.784Z,28.00
2022-09-01T12:26:42.514Z,28.00
2022-09-01T12:29:15.264Z,27.90
2022-09-01T12:31:45.160Z,27.90
2022-09-01T12:34:30.848Z,27.90
2022-09-01T12:37:31.382Z,27.90
2022-09-01T12:40:02.732Z,27.90
2022-09-01T12:42:40.996Z,27.90
2022-09-01T12:45:13.049Z,27.90
2022-09-01T12:47:50.358Z,27.90
2022-09-01T12:50:24.452Z,27.90
2022-09-01T12:52:57.980Z,27.80
2022-09-01T12:58:28.008Z,27.80
2022-09-01T13:01:05.540Z,27.70
2022-09-01T13:03:36.139Z,27.70
2022-09-01T13:06:06.923Z,27.70
2022-09-01T13:08:37.893Z,27.60
2022-09-01T13:11:11.872Z,27.70
2022-09-01T13:13:42.411Z,27.70
2022-09-01T13:16:13.938Z,27.70
2022-09-01T13:21:36.476Z,27.70
2022-09-01T13:24:07.996Z,27.70
2022-09-01T13:26:37.706Z,27.70
2022-09-01T13:29:07.006Z,27.60
2022-09-01T13:31:36.655Z,27.60
2022-09-01T13:34:10.359Z,27.50
2022-09-01T13:36:46.403Z,27.50
2022-09-01T13:39:18.715Z,27.60
2022-09-01T13:41:48.565Z,27.60
2022-09-01T13:44:19.854Z,27.60
2022-09-01T13:49:43.691Z,27.50
2022-09-01T13:52:14.491Z,27.50
2022-09-01T13:54:45.724Z,27.50
2022-09-01T13:57:17.041Z,27.50
2022-09-01T13:59:46.510Z,27.60
2022-09-01T14:02:15.746Z,27.50
2022-09-01T14:04:46.001Z,27.50
2022-09-01T14:07:15.363Z,27.50
2022-09-01T14:09:44.536Z,27.50
2022-09-01T14:12:14.341Z,27.50
2022-09-01T14:17:32.830Z,27.50
2022-09-01T14:20:02.036Z,27.50
2022-09-01T14:22:33.186Z,27.50
2022-09-01T14:25:06.228Z,27.40
2022-09-01T14:27:35.408Z,27.50
2022-09-01T14:30:06.300Z,27.50
2022-09-01T14:32:37.371Z,27.50
2022-09-01T14:35:09.606Z,27.50
2022-09-01T14:37:40.453Z,27.50
2022-09-01T14:40:16.454Z,27.50
2022-09-01T14:42:50.424Z,27.50
2022-09-01T14:45:22.050Z,27.50
2022-09-01T14:47:53.403Z,27.50
2022-09-01T14:50:23.772Z,27.50
2022-09-01T14:52:56.442Z,27.50
2022-09-01T14:55:27.809Z,27.50
2022-09-01T14:57:58.241Z,27.50
2022-09-01T15:00:28.135Z,27.50
2022-09-01T15:02:57.721Z,27.40
2022-09-01T15:05:27.346Z,27.40
2022-09-01T15:07:56.818Z,27.40
2022-09-01T15:10:28.539Z,27.40
2022-09-01T15:13:00.538Z,27.40
2022-09-01T15:15:31.519Z,27.40
2022-09-01T15:18:02.027Z,27.40
2022-09-01T15:20:46.906Z,27.50
2022-09-01T15:23:19.663Z,27.40
2022-09-01T15:25:49.736Z,27.50
2022-09-01T15:28:19.227Z,27.40
2022-09-01T15:30:49.747Z,27.50
2022-09-01T15:33:19.582Z,27.40
2022-09-01T15:35:49.191Z,27.40
2022-09-01T15:38:18.727Z,27.40
2022-09-01T15:40:57.219Z,27.40
2022-09-01T15:43:29.477Z,27.40
2022-09-01T15:46:00.421Z,27.40
2022-09-01T15:48:31.187Z,27.40
2022-09-01T15:51:25.890Z,27.40
2022-09-01T15:54:00.317Z,27.40
2022-09-01T15:56:29.940Z,27.40
2022-09-01T15:59:01.896Z,27.40
2022-09-01T16:01:34.566Z,27.40
2022-09-01T16:04:05.275Z,27.40
2022-09-01T16:06:35.461Z,27.40
2022-09-01T16:09:04.765Z,27.40
2022-09-01T16:11:34.329Z,27.40
2022-09-01T16:14:03.931Z,27.40
2022-09-01T16:16:40.881Z,27.40
2022-09-01T16:19:38.093Z,27.40
2022-09-01T16:22:13.317Z,27.40
2022-09-01T16:24:47.397Z,27.40
2022-09-01T16:27:19.762Z,27.40
2022-09-01T16:29:54.825Z,27.40
2022-09-01T16:32:25.014Z,27.40
2022-09-01T16:34:54.960Z,27.40
2022-09-01T16:37:50.559Z,27.40
2022-09-01T16:40:46.536Z,27.40
2022-09-01T16:43:48.308Z,27.40
2022-09-01T16:46:36.899Z,27.40
2022-09-01T16:49:21.667Z,27.40
2022-09-01T16:52:03.386Z,27.40
2022-09-01T16:54:52.658Z,27.40
2022-09-01T16:57:38.252Z,27.40
2022-09-01T17:03:57.369Z,27.40
2022-09-01T17:06:40.611Z,27.40
2022-09-01T17:09:16.763Z,27.40
2022-09-01T17:11:56.153Z,27.40
2022-09-01T17:14:42.511Z,27.40
2022-09-01T17:17:17.124Z,27.40
2022-09-01T17:19:51.493Z,27.40
2022-09-01T17:22:22.823Z,27.40
2022-09-01T17:24:58.569Z,27.40
2022-09-01T17:27:34.161Z,27.40
2022-09-01T17:30:03.933Z,27.40
2022-09-01T17:32:54.219Z,27.30
2022-09-01T17:35:46.837Z,27.40
2022-09-01T17:38:41.120Z,27.40
2022-09-01T17:41:15.730Z,27.40
2022-09-01T17:43:47.499Z,27.40
2022-09-01T17:46:38.169Z,27.40
2022-09-01T17:49:11.839Z,27.40
2022-09-01T17:51:51.478Z,27.40
2022-09-01T17:54:43.744Z,27.40
2022-09-01T17:57:35.803Z,27.40
2022-09-01T18:00:17.716Z,27.40
2022-09-01T18:03:00.218Z,27.40
2022-09-01T18:05:31.168Z,27.30
2022-09-01T18:08:20.506Z,27.30
2022-09-01T18:11:13.167Z,27.30
2022-09-01T18:14:09.782Z,27.30
2022-09-01T18:16:54.404Z,27.30
2022-09-01T18:19:27.730Z,27.30
2022-09-01T18:22:02.935Z,27.30
2022-09-01T18:24:53.392Z,27.30
2022-09-01T18:27:24.089Z,27.20
2022-09-01T18:29:54.263Z,27.30
2022-09-01T18:32:28.949Z,27.20
2022-09-01T18:35:28.508Z,27.20
2022-09-01T18:38:07.019Z,27.20
2022-09-01T18:40:48.794Z,27.20
2022-09-01T18:43:18.981Z,27.20
2022-09-01T18:46:00.580Z,27.20
2022-09-01T18:48:50.224Z,27.20
2022-09-01T18:51:24.239Z,27.30
2022-09-01T18:54:27.117Z,27.20
2022-09-01T18:57:00.591Z,27.30
2022-09-01T18:59:57.353Z,27.30
2022-09-01T19:02:55.147Z,27.30
2022-09-01T19:05:48.087Z,27.30
2022-09-01T19:08:26.688Z,27.20
2022-09-01T19:11:08.514Z,27.20
2022-09-01T19:13:46.174Z,27.20
2022-09-01T19:16:27.180Z,27.20
2022-09-01T19:19:09.595Z,27.20
2022-09-01T19:21:39.297Z,27.20
2022-09-01T19:24:15.384Z,27.20
2022-09-01T19:26:47.882Z,27.20
2022-09-01T19:29:22.160Z,27.20
2022-09-01T19:31:58.662Z,27.20
2022-09-01T19:34:34.019Z,27.20
2022-09-01T19:37:04.651Z,27.20
2022-09-01T19:39:39.558Z,27.20
2022-09-01T19:42:17.214Z,27.20
2022-09-01T19:44:55.829Z,27.20
2022-09-01T19:47:30.424Z,27.20
2022-09-01T19:50:24.020Z,27.20
2022-09-01T19:53:21.552Z,27.20
2022-09-01T19:55:57.677Z,27.20
2022-09-01T19:58:43.737Z,27.20
2022-09-01T20:01:18.098Z,27.20
2022-09-01T20:03:54.979Z,27.10
2022-09-01T20:06:34.732Z,27.10
2022-09-01T20:09:24.432Z,27.10
2022-09-01T20:12:27.113Z,27.10
2022-09-01T20:14:58.211Z,27.10
2022-09-01T20:17:35.798Z,27.00
2022-09-01T20:20:09.862Z,27.10
2022-09-01T20:23:10.035Z,27.00
2022-09-01T20:25:46.526Z,27.10
2022-09-01T20:28:30.415Z,27.10
2022-09-01T20:31:07.589Z,27.10
2022-09-01T20:33:46.604Z,27.10
2022-09-01T20:36:32.646Z,27.10
2022-09-01T20:39:25.272Z,27.10
2022-09-01T20:42:00.458Z,27.10
2022-09-01T20:44:38.810Z,27.10
2022-09-01T20:47:08.702Z,27.10
2022-09-01T20:49:40.284Z,27.10
2022-09-01T20:52:12.404Z,27.10
2022-09-01T20:55:01.743Z,27.10
2022-09-01T20:57:56.931Z,27.10
2022-09-01T21:00:29.787Z,27.00
2022-09-01T21:03:16.299Z,27.10
2022-09-01T21:05:53.375Z,27.10
2022-09-01T21:08:33.772Z,27.00
2022-09-01T21:11:28.067Z,27.10
2022-09-01T21:14:14.676Z,27.00
2022-09-01T21:17:05.345Z,27.00
2022-09-01T21:19:44.712Z,27.00
2022-09-01T21:22:19.857Z,27.00
2022-09-01T21:24:52.387Z,27.00
2022-09-01T21:27:26.665Z,27.00
2022-09-01T21:29:56.848Z,27.00
2022-09-01T21:32:26.628Z,27.00
2022-09-01T21:34:56.141Z,27.00
2022-09-01T21:37:26.637Z,27.00
2022-09-01T21:39:56.943Z,27.00
2022-09-01T21:42:41.670Z,26.90
2022-09-01T21:45:13.783Z,26.90
2022-09-01T21:47:45.013Z,26.90
2022-09-01T21:50:15.556Z,26.90
2022-09-01T21:52:44.985Z,26.90
2022-09-01T21:55:15.964Z,26.90
2022-09-01T21:57:47.792Z,26.90
2022-09-01T22:00:24.608Z,26.90
2022-09-01T22:03:14.067Z,26.90
2022-09-01T22:06:03.969Z,26.90
2022-09-01T22:08:52.828Z,26.90
2022-09-01T22:11:23.796Z,26.90
2022-09-01T22:13:53.836Z,27.00
2022-09-01T22:16:44.028Z,26.90
2022-09-01T22:19:54.630Z,26.90
2022-09-01T22:22:43.903Z,26.90
2022-09-01T22:25:33.396Z,26.90
2022-09-01T22:28:04.888Z,26.90
2022-09-01T22:30:35.164Z,26.90
2022-09-01T22:33:44.103Z,26.90
2022-09-01T22:36:33.280Z,26.80
2022-09-01T22:39:25.219Z,26.80
2022-09-01T22:41:56.381Z,26.80
2022-09-01T22:44:25.709Z,26.80
2022-09-01T22:46:54.999Z,26.80
2022-09-01T22:49:24.673Z,26.80
2022-09-01T22:51:54.064Z,26.80
2022-09-01T22:54:23.444Z,26.80
2022-09-01T22:56:56.274Z,26.80
2022-09-01T22:59:27.913Z,26.70
2022-09-01T23:01:57.342Z,26.70
2022-09-01T23:04:26.920Z,26.80
2022-09-01T23:06:56.225Z,26.80
2022-09-01T23:09:25.476Z,26.70
2022-09-01T23:11:54.757Z,26.70
2022-09-01T23:14:24.450Z,26.80
2022-09-01T23:17:52.445Z,26.70
2022-09-01T23:20:22.289Z,26.70
2022-09-01T23:22:52.100Z,26.80
2022-09-01T23:25:22.035Z,26.80
2022-09-01T23:27:51.762Z,26.80
2022-09-01T23:30:21.736Z,26.80
2022-09-01T23:32:51.516Z,26.90
2022-09-01T23:35:21.288Z,26.80
2022-09-01T23:37:51.084Z,26.80
2022-09-01T23:40:21.096Z,26.80
2022-09-01T23:42:51.008Z,26.80
2022-09-01T23:45:21.711Z,26.80
2022-09-01T23:47:51.559Z,26.80
2022-09-01T23:50:23.648Z,26.80
2022-09-01T23:52:53.444Z,26.80
2022-09-01T23:55:23.264Z,26.80
2022-09-01T23:57:53.043Z,26.80
